sensor_id;sensor_type;location;lat;lon;timestamp;temperature;humidity
16271;DHT22;8243;49.048;8.396;2022-10-17T00:00:41;12.70;99.90
16271;DHT22;8243;49.048;8.396;2022-10-17T00:03:07;12.70;99.90
16271;DHT22;8243;49.048;8.396;2022-10-17T00:05:32;12.60;99.90
16271;DHT22;8243;49.048;8.396;2022-10-17T00:07:58;12.50;99.90
16271;DHT22;8243;49.048;8.396;2022-10-17T00:10:24;12.50;99.90
16271;DHT22;8243;49.048;8.396;2022-10-17T00:12:50;12.50;99.90
16271;DHT22;8243;49.048;8.396;2022-10-17T00:15:18;12.50;99.90
16271;DHT22;8243;49.048;8.396;2022-10-17T00:17:44;12.50;99.90
16271;DHT22;8243;49.048;8.396;2022-10-17T00:20:10;12.50;99.90
16271;DHT22;8243;49.048;8.396;2022-10-17T00:22:36;12.60;99.90
16271;DHT22;8243;49.048;8.396;2022-10-17T00:25:02;12.50;99.90
16271;DHT22;8243;49.048;8.396;2022-10-17T00:27:27;12.50;99.90
16271;DHT22;8243;49.048;8.396;2022-10-17T00:29:53;12.50;99.90
16271;DHT22;8243;49.048;8.396;2022-10-17T00:32:19;12.40;99.90
16271;DHT22;8243;49.048;8.396;2022-10-17T00:34:45;12.40;99.90
16271;DHT22;8243;49.048;8.396;2022-10-17T00:37:11;12.40;99.90
16271;DHT22;8243;49.048;8.396;2022-10-17T00:39:37;12.40;99.90
16271;DHT22;8243;49.048;8.396;2022-10-17T00:42:03;12.30;99.90
16271;DHT22;8243;49.048;8.396;2022-10-17T00:46:58;12.30;99.90
16271;DHT22;8243;49.048;8.396;2022-10-17T00:49:25;12.30;99.90
16271;DHT22;8243;49.048;8.396;2022-10-17T00:51:54;12.30;99.90
16271;DHT22;8243;49.048;8.396;2022-10-17T00:54:23;12.20;99.90
16271;DHT22;8243;49.048;8.396;2022-10-17T00:56:50;12.30;99.90
16271;DHT22;8243;49.048;8.396;2022-10-17T00:59:18;12.20;99.90
16271;DHT22;8243;49.048;8.396;2022-10-17T01:02:00;12.30;99.90
16271;DHT22;8243;49.048;8.396;2022-10-17T01:04:26;12.30;99.90
16271;DHT22;8243;49.048;8.396;2022-10-17T01:06:52;12.30;99.90
16271;DHT22;8243;49.048;8.396;2022-10-17T01:09:17;12.20;99.90
16271;DHT22;8243;49.048;8.396;2022-10-17T01:14:26;12.20;99.90
16271;DHT22;8243;49.048;8.396;2022-10-17T01:23:17;12.00;99.90
16271;DHT22;8243;49.048;8.396;2022-10-17T01:31:35;11.90;99.90
16271;DHT22;8243;49.048;8.396;2022-10-17T01:34:24;12.00;99.90
16271;DHT22;8243;49.048;8.396;2022-10-17T01:37:05;12.00;99.90
16271;DHT22;8243;49.048;8.396;2022-10-17T01:39:43;12.00;99.90
16271;DHT22;8243;49.048;8.396;2022-10-17T01:42:17;11.80;99.90
16271;DHT22;8243;49.048;8.396;2022-10-17T01:47:30;12.20;99.90
16271;DHT22;8243;49.048;8.396;2022-10-17T01:50:02;12.50;99.90
16271;DHT22;8243;49.048;8.396;2022-10-17T01:52:40;12.70;99.90
16271;DHT22;8243;49.048;8.396;2022-10-17T01:55:14;12.90;99.90
16271;DHT22;8243;49.048;8.396;2022-10-17T01:57:50;12.70;99.90
16271;DHT22;8243;49.048;8.396;2022-10-17T02:00:20;12.60;99.90
16271;DHT22;8243;49.048;8.396;2022-10-17T02:02:50;12.50;99.90
16271;DHT22;8243;49.048;8.396;2022-10-17T02:05:19;12.40;99.90
16271;DHT22;8243;49.048;8.396;2022-10-17T02:07:46;12.40;99.90
16271;DHT22;8243;49.048;8.396;2022-10-17T02:10:40;12.40;99.90
16271;DHT22;8243;49.048;8.396;2022-10-17T02:13:17;12.40;99.90
16271;DHT22;8243;49.048;8.396;2022-10-17T02:16:04;12.30;99.90
16271;DHT22;8243;49.048;8.396;2022-10-17T02:19:06;12.20;99.90
16271;DHT22;8243;49.048;8.396;2022-10-17T02:21:52;12.40;99.90
16271;DHT22;8243;49.048;8.396;2022-10-17T02:27:16;12.50;99.90
16271;DHT22;8243;49.048;8.396;2022-10-17T02:29:46;12.50;99.90
16271;DHT22;8243;49.048;8.396;2022-10-17T02:32:19;12.80;99.90
16271;DHT22;8243;49.048;8.396;2022-10-17T02:34:49;12.80;99.90
16271;DHT22;8243;49.048;8.396;2022-10-17T02:37:19;13.00;99.90
16271;DHT22;8243;49.048;8.396;2022-10-17T02:39:47;13.00;99.90
16271;DHT22;8243;49.048;8.396;2022-10-17T02:42:14;13.10;99.90
16271;DHT22;8243;49.048;8.396;2022-10-17T02:44:43;13.00;99.90
16271;DHT22;8243;49.048;8.396;2022-10-17T02:47:24;13.00;99.90
16271;DHT22;8243;49.048;8.396;2022-10-17T02:49:53;13.00;99.90
16271;DHT22;8243;49.048;8.396;2022-10-17T02:52:29;13.10;99.90
16271;DHT22;8243;49.048;8.396;2022-10-17T02:55:07;13.10;99.90
16271;DHT22;8243;49.048;8.396;2022-10-17T02:57:56;13.00;99.90
16271;DHT22;8243;49.048;8.396;2022-10-17T03:00:24;13.10;99.90
16271;DHT22;8243;49.048;8.396;2022-10-17T03:02:52;13.00;99.90
16271;DHT22;8243;49.048;8.396;2022-10-17T03:05:20;12.90;99.90
16271;DHT22;8243;49.048;8.396;2022-10-17T03:07:49;12.80;99.90
16271;DHT22;8243;49.048;8.396;2022-10-17T03:10:15;12.80;99.90
16271;DHT22;8243;49.048;8.396;2022-10-17T03:12:41;12.80;99.90
16271;DHT22;8243;49.048;8.396;2022-10-17T03:15:07;12.70;99.90
16271;DHT22;8243;49.048;8.396;2022-10-17T03:17:33;12.70;99.90
16271;DHT22;8243;49.048;8.396;2022-10-17T03:19:59;12.80;99.90
16271;DHT22;8243;49.048;8.396;2022-10-17T03:22:24;12.80;99.90
16271;DHT22;8243;49.048;8.396;2022-10-17T03:24:50;12.70;99.90
16271;DHT22;8243;49.048;8.396;2022-10-17T03:27:15;12.70;99.90
16271;DHT22;8243;49.048;8.396;2022-10-17T03:29:41;12.70;99.90
16271;DHT22;8243;49.048;8.396;2022-10-17T03:32:06;12.70;99.90
16271;DHT22;8243;49.048;8.396;2022-10-17T03:34:32;12.50;99.90
16271;DHT22;8243;49.048;8.396;2022-10-17T03:36:58;12.40;99.90
16271;DHT22;8243;49.048;8.396;2022-10-17T03:39:23;12.20;99.90
16271;DHT22;8243;49.048;8.396;2022-10-17T03:41:49;12.20;99.90
16271;DHT22;8243;49.048;8.396;2022-10-17T03:44:14;12.20;99.90
16271;DHT22;8243;49.048;8.396;2022-10-17T03:46:40;12.20;99.90
16271;DHT22;8243;49.048;8.396;2022-10-17T03:49:07;12.20;99.90
16271;DHT22;8243;49.048;8.396;2022-10-17T03:51:35;12.00;99.90
16271;DHT22;8243;49.048;8.396;2022-10-17T03:54:01;12.00;99.90
16271;DHT22;8243;49.048;8.396;2022-10-17T03:56:26;12.00;99.90
16271;DHT22;8243;49.048;8.396;2022-10-17T03:58:53;12.00;99.90
16271;DHT22;8243;49.048;8.396;2022-10-17T04:01:19;12.00;99.90
16271;DHT22;8243;49.048;8.396;2022-10-17T04:03:53;12.00;99.90
16271;DHT22;8243;49.048;8.396;2022-10-17T04:06:19;11.90;99.90
16271;DHT22;8243;49.048;8.396;2022-10-17T04:08:46;11.80;99.90
16271;DHT22;8243;49.048;8.396;2022-10-17T04:11:17;11.90;99.90
16271;DHT22;8243;49.048;8.396;2022-10-17T04:13:43;11.80;99.90
16271;DHT22;8243;49.048;8.396;2022-10-17T04:16:12;11.80;99.90
16271;DHT22;8243;49.048;8.396;2022-10-17T04:18:38;11.70;99.90
16271;DHT22;8243;49.048;8.396;2022-10-17T04:21:04;11.70;99.90
16271;DHT22;8243;49.048;8.396;2022-10-17T04:23:30;11.70;99.90
16271;DHT22;8243;49.048;8.396;2022-10-17T04:25:59;11.80;99.90
16271;DHT22;8243;49.048;8.396;2022-10-17T04:28:26;11.70;99.90
16271;DHT22;8243;49.048;8.396;2022-10-17T04:31:07;11.70;99.90
16271;DHT22;8243;49.048;8.396;2022-10-17T04:33:34;11.70;99.90
16271;DHT22;8243;49.048;8.396;2022-10-17T04:36:01;11.60;99.90
16271;DHT22;8243;49.048;8.396;2022-10-17T04:38:28;11.60;99.90
16271;DHT22;8243;49.048;8.396;2022-10-17T04:40:55;11.50;99.90
16271;DHT22;8243;49.048;8.396;2022-10-17T04:43:21;11.50;99.90
16271;DHT22;8243;49.048;8.396;2022-10-17T04:45:47;11.60;99.90
16271;DHT22;8243;49.048;8.396;2022-10-17T04:48:14;11.60;99.90
16271;DHT22;8243;49.048;8.396;2022-10-17T04:50:39;11.60;99.90
16271;DHT22;8243;49.048;8.396;2022-10-17T04:53:06;11.60;99.90
16271;DHT22;8243;49.048;8.396;2022-10-17T04:55:36;11.60;99.90
16271;DHT22;8243;49.048;8.396;2022-10-17T04:58:02;11.60;99.90
16271;DHT22;8243;49.048;8.396;2022-10-17T05:00:27;11.40;99.90
16271;DHT22;8243;49.048;8.396;2022-10-17T05:02:53;11.40;99.90
16271;DHT22;8243;49.048;8.396;2022-10-17T05:05:18;11.30;99.90
16271;DHT22;8243;49.048;8.396;2022-10-17T05:07:44;11.30;99.90
16271;DHT22;8243;49.048;8.396;2022-10-17T05:10:10;11.30;99.90
16271;DHT22;8243;49.048;8.396;2022-10-17T05:12:35;11.30;99.90
16271;DHT22;8243;49.048;8.396;2022-10-17T05:15:01;11.30;99.90
16271;DHT22;8243;49.048;8.396;2022-10-17T05:17:26;11.20;99.90
16271;DHT22;8243;49.048;8.396;2022-10-17T05:19:52;11.20;99.90
16271;DHT22;8243;49.048;8.396;2022-10-17T05:22:17;11.20;99.90
16271;DHT22;8243;49.048;8.396;2022-10-17T05:24:43;11.10;99.90
16271;DHT22;8243;49.048;8.396;2022-10-17T05:27:08;11.10;99.90
16271;DHT22;8243;49.048;8.396;2022-10-17T05:29:34;11.00;99.90
16271;DHT22;8243;49.048;8.396;2022-10-17T05:31:59;11.10;99.90
16271;DHT22;8243;49.048;8.396;2022-10-17T05:34:25;11.40;99.90
16271;DHT22;8243;49.048;8.396;2022-10-17T05:36:51;11.60;99.90
16271;DHT22;8243;49.048;8.396;2022-10-17T05:39:16;11.80;99.90
16271;DHT22;8243;49.048;8.396;2022-10-17T05:41:44;11.90;99.90
16271;DHT22;8243;49.048;8.396;2022-10-17T05:44:10;11.90;99.90
16271;DHT22;8243;49.048;8.396;2022-10-17T05:46:36;12.00;99.90
16271;DHT22;8243;49.048;8.396;2022-10-17T05:49:02;12.00;99.90
16271;DHT22;8243;49.048;8.396;2022-10-17T05:51:27;12.00;99.90
16271;DHT22;8243;49.048;8.396;2022-10-17T05:53:53;12.00;99.90
16271;DHT22;8243;49.048;8.396;2022-10-17T05:56:18;11.90;99.90
16271;DHT22;8243;49.048;8.396;2022-10-17T05:58:44;11.90;99.90
16271;DHT22;8243;49.048;8.396;2022-10-17T06:01:11;11.80;99.90
16271;DHT22;8243;49.048;8.396;2022-10-17T06:03:37;11.80;99.90
16271;DHT22;8243;49.048;8.396;2022-10-17T06:06:10;11.90;99.90
16271;DHT22;8243;49.048;8.396;2022-10-17T06:08:36;11.90;99.90
16271;DHT22;8243;49.048;8.396;2022-10-17T06:11:02;11.80;99.90
16271;DHT22;8243;49.048;8.396;2022-10-17T06:13:28;11.90;99.90
16271;DHT22;8243;49.048;8.396;2022-10-17T06:15:55;11.90;99.90
16271;DHT22;8243;49.048;8.396;2022-10-17T06:18:20;11.90;99.90
16271;DHT22;8243;49.048;8.396;2022-10-17T06:20:46;12.00;99.90
16271;DHT22;8243;49.048;8.396;2022-10-17T06:23:12;12.20;99.90
16271;DHT22;8243;49.048;8.396;2022-10-17T06:25:37;12.40;99.90
16271;DHT22;8243;49.048;8.396;2022-10-17T06:28:03;12.50;99.90
16271;DHT22;8243;49.048;8.396;2022-10-17T06:30:29;12.90;99.90
16271;DHT22;8243;49.048;8.396;2022-10-17T06:32:54;13.70;99.90
16271;DHT22;8243;49.048;8.396;2022-10-17T06:35:20;14.20;99.90
16271;DHT22;8243;49.048;8.396;2022-10-17T06:37:46;14.50;99.90
16271;DHT22;8243;49.048;8.396;2022-10-17T06:40:12;15.00;99.90
16271;DHT22;8243;49.048;8.396;2022-10-17T06:42:40;15.60;99.90
16271;DHT22;8243;49.048;8.396;2022-10-17T06:45:06;16.10;99.90
16271;DHT22;8243;49.048;8.396;2022-10-17T06:47:32;16.90;99.90
16271;DHT22;8243;49.048;8.396;2022-10-17T06:49:58;17.20;99.90
16271;DHT22;8243;49.048;8.396;2022-10-17T06:52:27;17.80;99.90
16271;DHT22;8243;49.048;8.396;2022-10-17T06:54:52;18.40;99.90
16271;DHT22;8243;49.048;8.396;2022-10-17T06:57:18;18.60;99.90
16271;DHT22;8243;49.048;8.396;2022-10-17T06:59:43;19.00;99.90
16271;DHT22;8243;49.048;8.396;2022-10-17T07:02:12;19.20;99.90
16271;DHT22;8243;49.048;8.396;2022-10-17T07:04:40;19.30;99.90
16271;DHT22;8243;49.048;8.396;2022-10-17T07:07:06;19.30;99.90
16271;DHT22;8243;49.048;8.396;2022-10-17T07:09:32;19.30;99.90
16271;DHT22;8243;49.048;8.396;2022-10-17T07:12:01;19.30;99.90
16271;DHT22;8243;49.048;8.396;2022-10-17T07:14:27;19.40;99.90
16271;DHT22;8243;49.048;8.396;2022-10-17T07:17:00;19.50;99.90
16271;DHT22;8243;49.048;8.396;2022-10-17T07:19:25;19.60;99.90
16271;DHT22;8243;49.048;8.396;2022-10-17T07:21:52;19.80;99.90
16271;DHT22;8243;49.048;8.396;2022-10-17T07:24:20;20.10;99.90
16271;DHT22;8243;49.048;8.396;2022-10-17T07:26:46;20.30;99.90
16271;DHT22;8243;49.048;8.396;2022-10-17T07:29:12;20.30;99.90
16271;DHT22;8243;49.048;8.396;2022-10-17T07:31:37;20.40;99.90
16271;DHT22;8243;49.048;8.396;2022-10-17T07:34:03;20.80;99.90
16271;DHT22;8243;49.048;8.396;2022-10-17T07:36:28;20.90;97.40
16271;DHT22;8243;49.048;8.396;2022-10-17T07:38:54;21.00;96.90
16271;DHT22;8243;49.048;8.396;2022-10-17T07:41:20;21.90;88.20
16271;DHT22;8243;49.048;8.396;2022-10-17T07:43:45;21.90;76.60
16271;DHT22;8243;49.048;8.396;2022-10-17T07:46:11;21.40;85.00
16271;DHT22;8243;49.048;8.396;2022-10-17T07:48:38;21.20;89.50
16271;DHT22;8243;49.048;8.396;2022-10-17T07:51:08;21.10;81.70
16271;DHT22;8243;49.048;8.396;2022-10-17T07:53:38;21.10;90.40
16271;DHT22;8243;49.048;8.396;2022-10-17T07:56:05;21.30;91.20
16271;DHT22;8243;49.048;8.396;2022-10-17T07:58:35;21.20;80.50
16271;DHT22;8243;49.048;8.396;2022-10-17T08:01:06;21.50;78.20
16271;DHT22;8243;49.048;8.396;2022-10-17T08:03:31;22.50;62.90
16271;DHT22;8243;49.048;8.396;2022-10-17T08:06:00;22.90;52.80
16271;DHT22;8243;49.048;8.396;2022-10-17T08:08:26;22.80;53.50
16271;DHT22;8243;49.048;8.396;2022-10-17T08:11:00;22.60;55.00
16271;DHT22;8243;49.048;8.396;2022-10-17T08:13:25;22.40;57.00
16271;DHT22;8243;49.048;8.396;2022-10-17T08:15:51;22.90;53.40
16271;DHT22;8243;49.048;8.396;2022-10-17T08:18:17;23.60;48.30
16271;DHT22;8243;49.048;8.396;2022-10-17T08:20:43;23.80;53.60
16271;DHT22;8243;49.048;8.396;2022-10-17T08:23:08;24.50;40.10
16271;DHT22;8243;49.048;8.396;2022-10-17T08:25:36;24.20;35.70
16271;DHT22;8243;49.048;8.396;2022-10-17T08:28:02;24.40;36.70
16271;DHT22;8243;49.048;8.396;2022-10-17T08:30:27;24.40;39.80
16271;DHT22;8243;49.048;8.396;2022-10-17T08:32:55;24.50;35.40
16271;DHT22;8243;49.048;8.396;2022-10-17T08:35:20;24.80;33.90
16271;DHT22;8243;49.048;8.396;2022-10-17T08:37:46;24.80;34.20
16271;DHT22;8243;49.048;8.396;2022-10-17T08:40:24;24.60;33.90
16271;DHT22;8243;49.048;8.396;2022-10-17T08:43:13;25.00;32.10
16271;DHT22;8243;49.048;8.396;2022-10-17T08:45:50;25.00;32.00
16271;DHT22;8243;49.048;8.396;2022-10-17T08:48:19;24.90;32.80
16271;DHT22;8243;49.048;8.396;2022-10-17T08:51:05;25.20;30.10
16271;DHT22;8243;49.048;8.396;2022-10-17T08:53:47;25.60;29.40
16271;DHT22;8243;49.048;8.396;2022-10-17T08:58:45;25.60;27.30
16271;DHT22;8243;49.048;8.396;2022-10-17T09:02:02;25.20;28.60
16271;DHT22;8243;49.048;8.396;2022-10-17T09:06:45;25.20;29.90
16271;DHT22;8243;49.048;8.396;2022-10-17T09:12:40;25.10;29.50
16271;DHT22;8243;49.048;8.396;2022-10-17T09:18:14;24.70;29.80
16271;DHT22;8243;49.048;8.396;2022-10-17T09:20:46;24.90;29.00
16271;DHT22;8243;49.048;8.396;2022-10-17T09:23:23;25.00;27.40
16271;DHT22;8243;49.048;8.396;2022-10-17T09:25:53;25.00;27.80
16271;DHT22;8243;49.048;8.396;2022-10-17T09:28:31;25.00;28.20
16271;DHT22;8243;49.048;8.396;2022-10-17T09:31:20;25.00;28.40
16271;DHT22;8243;49.048;8.396;2022-10-17T09:33:48;25.20;28.40
16271;DHT22;8243;49.048;8.396;2022-10-17T09:38:56;24.70;29.70
16271;DHT22;8243;49.048;8.396;2022-10-17T09:41:26;24.40;30.30
16271;DHT22;8243;49.048;8.396;2022-10-17T09:43:55;24.40;33.10
16271;DHT22;8243;49.048;8.396;2022-10-17T09:46:39;24.30;32.20
16271;DHT22;8243;49.048;8.396;2022-10-17T09:49:13;24.40;34.50
16271;DHT22;8243;49.048;8.396;2022-10-17T09:51:41;24.80;32.10
16271;DHT22;8243;49.048;8.396;2022-10-17T09:54:25;25.20;31.20
16271;DHT22;8243;49.048;8.396;2022-10-17T09:57:09;25.40;29.00
16271;DHT22;8243;49.048;8.396;2022-10-17T09:59:37;25.50;28.20
16271;DHT22;8243;49.048;8.396;2022-10-17T10:02:23;25.50;28.30
16271;DHT22;8243;49.048;8.396;2022-10-17T10:05:04;25.40;27.50
16271;DHT22;8243;49.048;8.396;2022-10-17T10:07:40;25.50;27.50
16271;DHT22;8243;49.048;8.396;2022-10-17T10:10:23;25.40;28.20
16271;DHT22;8243;49.048;8.396;2022-10-17T10:13:25;25.00;29.40
16271;DHT22;8243;49.048;8.396;2022-10-17T10:15:49;25.00;28.60
16271;DHT22;8243;49.048;8.396;2022-10-17T10:18:35;24.90;29.20
16271;DHT22;8243;49.048;8.396;2022-10-17T10:24:01;24.60;31.00
16271;DHT22;8243;49.048;8.396;2022-10-17T10:26:42;24.60;30.40
16271;DHT22;8243;49.048;8.396;2022-10-17T10:32:11;24.40;32.30
16271;DHT22;8243;49.048;8.396;2022-10-17T10:34:58;24.30;32.20
16271;DHT22;8243;49.048;8.396;2022-10-17T10:40:00;24.00;33.80
16271;DHT22;8243;49.048;8.396;2022-10-17T10:42:33;23.90;36.00
16271;DHT22;8243;49.048;8.396;2022-10-17T10:45:17;23.90;38.80
16271;DHT22;8243;49.048;8.396;2022-10-17T10:50:43;24.10;33.80
16271;DHT22;8243;49.048;8.396;2022-10-17T10:53:30;24.20;32.70
16271;DHT22;8243;49.048;8.396;2022-10-17T10:58:48;24.20;33.20
16271;DHT22;8243;49.048;8.396;2022-10-17T11:06:54;25.00;30.80
16271;DHT22;8243;49.048;8.396;2022-10-17T11:12:32;25.10;30.40
16271;DHT22;8243;49.048;8.396;2022-10-17T11:15:21;25.20;29.60
16271;DHT22;8243;49.048;8.396;2022-10-17T11:17:59;25.00;30.80
16271;DHT22;8243;49.048;8.396;2022-10-17T11:20:49;25.10;29.90
16271;DHT22;8243;49.048;8.396;2022-10-17T11:23:39;25.00;30.80
16271;DHT22;8243;49.048;8.396;2022-10-17T11:26:10;25.00;29.70
16271;DHT22;8243;49.048;8.396;2022-10-17T11:28:38;24.90;30.80
16271;DHT22;8243;49.048;8.396;2022-10-17T11:31:08;24.90;30.60
16271;DHT22;8243;49.048;8.396;2022-10-17T11:33:55;24.90;29.60
16271;DHT22;8243;49.048;8.396;2022-10-17T11:36:25;24.90;30.00
16271;DHT22;8243;49.048;8.396;2022-10-17T11:39:06;25.00;30.80
16271;DHT22;8243;49.048;8.396;2022-10-17T11:44:17;24.90;31.90
16271;DHT22;8243;49.048;8.396;2022-10-17T11:46:48;24.90;31.40
16271;DHT22;8243;49.048;8.396;2022-10-17T11:49:19;24.80;31.00
16271;DHT22;8243;49.048;8.396;2022-10-17T11:52:09;25.00;30.60
16271;DHT22;8243;49.048;8.396;2022-10-17T11:54:41;25.00;29.40
16271;DHT22;8243;49.048;8.396;2022-10-17T12:00:19;24.90;29.20
16271;DHT22;8243;49.048;8.396;2022-10-17T12:11:10;24.70;29.80
16271;DHT22;8243;49.048;8.396;2022-10-17T12:13:45;24.50;30.00
16271;DHT22;8243;49.048;8.396;2022-10-17T12:18:44;24.60;30.60
16271;DHT22;8243;49.048;8.396;2022-10-17T12:21:10;24.70;31.20
16271;DHT22;8243;49.048;8.396;2022-10-17T12:23:36;24.80;32.00
16271;DHT22;8243;49.048;8.396;2022-10-17T12:26:07;24.80;30.40
16271;DHT22;8243;49.048;8.396;2022-10-17T12:31:06;24.90;29.80
16271;DHT22;8243;49.048;8.396;2022-10-17T12:33:51;24.80;30.60
16271;DHT22;8243;49.048;8.396;2022-10-17T12:38:45;24.90;30.30
16271;DHT22;8243;49.048;8.396;2022-10-17T12:41:11;25.00;30.10
16271;DHT22;8243;49.048;8.396;2022-10-17T12:43:49;25.10;30.90
16271;DHT22;8243;49.048;8.396;2022-10-17T12:46:45;25.20;29.70
16271;DHT22;8243;49.048;8.396;2022-10-17T12:54:50;25.50;27.60
16271;DHT22;8243;49.048;8.396;2022-10-17T13:02:53;25.80;27.40
16271;DHT22;8243;49.048;8.396;2022-10-17T13:05:32;25.70;26.60
16271;DHT22;8243;49.048;8.396;2022-10-17T13:08:00;25.70;26.20
16271;DHT22;8243;49.048;8.396;2022-10-17T13:10:28;25.80;26.30
16271;DHT22;8243;49.048;8.396;2022-10-17T13:13:06;25.80;26.00
16271;DHT22;8243;49.048;8.396;2022-10-17T13:15:33;26.00;25.80
16271;DHT22;8243;49.048;8.396;2022-10-17T13:18:00;26.00;25.80
16271;DHT22;8243;49.048;8.396;2022-10-17T13:20:27;25.90;25.70
16271;DHT22;8243;49.048;8.396;2022-10-17T13:22:55;25.90;26.20
16271;DHT22;8243;49.048;8.396;2022-10-17T13:25:22;25.80;26.20
16271;DHT22;8243;49.048;8.396;2022-10-17T13:27:48;25.50;26.60
16271;DHT22;8243;49.048;8.396;2022-10-17T13:30:23;25.50;26.60
16271;DHT22;8243;49.048;8.396;2022-10-17T13:32:49;25.60;27.00
16271;DHT22;8243;49.048;8.396;2022-10-17T13:35:22;25.70;26.60
16271;DHT22;8243;49.048;8.396;2022-10-17T13:37:49;25.70;26.10
16271;DHT22;8243;49.048;8.396;2022-10-17T13:40:21;25.70;25.90
16271;DHT22;8243;49.048;8.396;2022-10-17T13:42:47;25.50;25.60
16271;DHT22;8243;49.048;8.396;2022-10-17T13:45:29;25.50;25.50
16271;DHT22;8243;49.048;8.396;2022-10-17T13:48:00;25.50;25.80
16271;DHT22;8243;49.048;8.396;2022-10-17T13:50:34;25.50;26.00
16271;DHT22;8243;49.048;8.396;2022-10-17T13:53:36;25.50;26.20
16271;DHT22;8243;49.048;8.396;2022-10-17T13:56:15;25.50;26.40
16271;DHT22;8243;49.048;8.396;2022-10-17T13:58:50;25.50;26.40
16271;DHT22;8243;49.048;8.396;2022-10-17T14:01:17;25.50;26.30
16271;DHT22;8243;49.048;8.396;2022-10-17T14:03:44;25.50;26.70
16271;DHT22;8243;49.048;8.396;2022-10-17T14:06:23;25.50;26.30
16271;DHT22;8243;49.048;8.396;2022-10-17T14:08:53;25.40;27.60
16271;DHT22;8243;49.048;8.396;2022-10-17T14:12:02;25.40;27.50
16271;DHT22;8243;49.048;8.396;2022-10-17T14:14:29;25.50;27.00
16271;DHT22;8243;49.048;8.396;2022-10-17T14:16:55;25.60;27.00
16271;DHT22;8243;49.048;8.396;2022-10-17T14:19:26;25.60;26.50
16271;DHT22;8243;49.048;8.396;2022-10-17T14:22:13;25.50;27.10
16271;DHT22;8243;49.048;8.396;2022-10-17T14:24:39;25.70;27.00
16271;DHT22;8243;49.048;8.396;2022-10-17T14:27:35;25.60;26.70
16271;DHT22;8243;49.048;8.396;2022-10-17T14:32:58;25.80;26.10
16271;DHT22;8243;49.048;8.396;2022-10-17T14:35:25;25.80;26.10
16271;DHT22;8243;49.048;8.396;2022-10-17T14:37:52;25.70;26.40
16271;DHT22;8243;49.048;8.396;2022-10-17T14:40:23;25.50;26.60
16271;DHT22;8243;49.048;8.396;2022-10-17T14:42:50;25.50;26.00
16271;DHT22;8243;49.048;8.396;2022-10-17T14:45:29;25.50;26.20
16271;DHT22;8243;49.048;8.396;2022-10-17T14:48:08;25.50;26.10
16271;DHT22;8243;49.048;8.396;2022-10-17T14:50:35;25.30;26.60
16271;DHT22;8243;49.048;8.396;2022-10-17T14:55:33;25.40;26.70
16271;DHT22;8243;49.048;8.396;2022-10-17T14:57:59;25.40;26.40
16271;DHT22;8243;49.048;8.396;2022-10-17T15:00:24;25.40;26.80
16271;DHT22;8243;49.048;8.396;2022-10-17T15:02:52;25.30;26.50
16271;DHT22;8243;49.048;8.396;2022-10-17T15:05:18;25.20;27.30
16271;DHT22;8243;49.048;8.396;2022-10-17T15:07:45;25.00;27.80
16271;DHT22;8243;49.048;8.396;2022-10-17T15:10:30;24.90;28.10
16271;DHT22;8243;49.048;8.396;2022-10-17T15:12:56;24.80;28.00
16271;DHT22;8243;49.048;8.396;2022-10-17T15:15:21;24.70;28.40
16271;DHT22;8243;49.048;8.396;2022-10-17T15:17:47;24.60;29.20
16271;DHT22;8243;49.048;8.396;2022-10-17T15:20:15;24.60;29.30
16271;DHT22;8243;49.048;8.396;2022-10-17T15:22:41;24.60;29.50
16271;DHT22;8243;49.048;8.396;2022-10-17T15:25:07;24.50;30.30
16271;DHT22;8243;49.048;8.396;2022-10-17T15:27:33;24.40;30.20
16271;DHT22;8243;49.048;8.396;2022-10-17T15:29:58;24.40;30.90
16271;DHT22;8243;49.048;8.396;2022-10-17T15:32:24;24.30;31.60
16271;DHT22;8243;49.048;8.396;2022-10-17T15:34:50;24.30;32.50
16271;DHT22;8243;49.048;8.396;2022-10-17T15:37:18;24.30;32.70
16271;DHT22;8243;49.048;8.396;2022-10-17T15:39:51;24.30;33.10
16271;DHT22;8243;49.048;8.396;2022-10-17T15:42:27;24.20;33.80
16271;DHT22;8243;49.048;8.396;2022-10-17T15:44:53;24.10;35.00
16271;DHT22;8243;49.048;8.396;2022-10-17T15:47:30;24.00;36.40
16271;DHT22;8243;49.048;8.396;2022-10-17T15:50:00;23.90;37.30
16271;DHT22;8243;49.048;8.396;2022-10-17T15:52:26;23.70;38.00
16271;DHT22;8243;49.048;8.396;2022-10-17T15:54:53;23.70;38.80
16271;DHT22;8243;49.048;8.396;2022-10-17T15:57:25;23.60;39.30
16271;DHT22;8243;49.048;8.396;2022-10-17T15:59:52;23.50;40.30
16271;DHT22;8243;49.048;8.396;2022-10-17T16:02:19;23.40;41.60
16271;DHT22;8243;49.048;8.396;2022-10-17T16:04:46;23.30;43.70
16271;DHT22;8243;49.048;8.396;2022-10-17T16:07:13;23.10;44.70
16271;DHT22;8243;49.048;8.396;2022-10-17T16:09:38;23.00;47.10
16271;DHT22;8243;49.048;8.396;2022-10-17T16:12:08;22.90;48.50
16271;DHT22;8243;49.048;8.396;2022-10-17T16:14:35;22.80;59.80
16271;DHT22;8243;49.048;8.396;2022-10-17T16:17:01;22.50;78.50
16271;DHT22;8243;49.048;8.396;2022-10-17T16:19:26;22.40;79.10
16271;DHT22;8243;49.048;8.396;2022-10-17T16:21:55;22.30;99.90
16271;DHT22;8243;49.048;8.396;2022-10-17T16:24:22;22.10;99.90
16271;DHT22;8243;49.048;8.396;2022-10-17T16:26:48;21.80;99.90
16271;DHT22;8243;49.048;8.396;2022-10-17T16:29:14;21.40;99.90
16271;DHT22;8243;49.048;8.396;2022-10-17T16:31:42;21.10;99.90
16271;DHT22;8243;49.048;8.396;2022-10-17T16:34:10;20.90;99.90
16271;DHT22;8243;49.048;8.396;2022-10-17T16:36:37;20.80;99.90
16271;DHT22;8243;49.048;8.396;2022-10-17T16:39:03;20.70;99.90
16271;DHT22;8243;49.048;8.396;2022-10-17T16:41:34;20.60;99.90
16271;DHT22;8243;49.048;8.396;2022-10-17T16:44:02;20.50;99.90
16271;DHT22;8243;49.048;8.396;2022-10-17T16:46:29;20.40;99.90
16271;DHT22;8243;49.048;8.396;2022-10-17T16:48:57;20.30;99.90
16271;DHT22;8243;49.048;8.396;2022-10-17T16:51:22;20.10;99.90
16271;DHT22;8243;49.048;8.396;2022-10-17T16:53:50;20.00;99.90
16271;DHT22;8243;49.048;8.396;2022-10-17T16:56:19;19.80;99.90
16271;DHT22;8243;49.048;8.396;2022-10-17T16:58:46;19.80;99.90
16271;DHT22;8243;49.048;8.396;2022-10-17T17:01:14;19.80;99.90
16271;DHT22;8243;49.048;8.396;2022-10-17T17:03:41;19.60;99.90
16271;DHT22;8243;49.048;8.396;2022-10-17T17:06:10;19.50;99.90
16271;DHT22;8243;49.048;8.396;2022-10-17T17:08:36;19.30;99.90
16271;DHT22;8243;49.048;8.396;2022-10-17T17:11:05;19.10;99.90
16271;DHT22;8243;49.048;8.396;2022-10-17T17:13:31;19.10;99.90
16271;DHT22;8243;49.048;8.396;2022-10-17T17:16:08;19.10;99.90
16271;DHT22;8243;49.048;8.396;2022-10-17T17:18:34;19.00;99.90
16271;DHT22;8243;49.048;8.396;2022-10-17T17:21:02;18.80;99.90
16271;DHT22;8243;49.048;8.396;2022-10-17T17:23:29;18.60;99.90
16271;DHT22;8243;49.048;8.396;2022-10-17T17:25:59;18.30;99.90
16271;DHT22;8243;49.048;8.396;2022-10-17T17:28:25;18.30;99.90
16271;DHT22;8243;49.048;8.396;2022-10-17T17:30:52;18.20;99.90
16271;DHT22;8243;49.048;8.396;2022-10-17T17:33:17;18.10;99.90
16271;DHT22;8243;49.048;8.396;2022-10-17T17:35:43;18.20;99.90
16271;DHT22;8243;49.048;8.396;2022-10-17T17:38:08;18.20;99.90
16271;DHT22;8243;49.048;8.396;2022-10-17T17:40:34;18.20;99.90